createdAt,value
2022-11-19T00:00:04.524Z,3
2022-11-19T00:01:07.191Z,3
2022-11-19T00:02:09.939Z,3
2022-11-19T00:03:12.731Z,3
2022-11-19T00:04:15.416Z,3
2022-11-19T00:05:18.091Z,3
2022-11-19T00:06:23.694Z,4
2022-11-19T00:07:26.408Z,3
2022-11-19T00:08:29.111Z,3
2022-11-19T00:09:31.731Z,3
2022-11-19T00:10:34.399Z,3
2022-11-19T00:11:38.078Z,2
2022-11-19T00:12:40.774Z,3
2022-11-19T00:13:43.511Z,3
2022-11-19T00:14:46.209Z,3
2022-11-19T00:15:48.850Z,3
2022-11-19T00:16:51.490Z,3
2022-11-19T00:17:54.166Z,5
2022-11-19T00:18:56.813Z,3
2022-11-19T00:19:59.444Z,3
2022-11-19T00:21:02.055Z,2
2022-11-19T00:22:04.747Z,3
2022-11-19T00:23:07.398Z,3
2022-11-19T00:24:10.055Z,3
2022-11-19T00:25:12.715Z,3
2022-11-19T00:26:15.326Z,2
2022-11-19T00:27:18.002Z,3
2022-11-19T00:28:20.658Z,3
2022-11-19T00:29:24.110Z,4
2022-11-19T00:30:47.333Z,3
2022-11-19T00:31:48.894Z,3
2022-11-19T00:32:51.609Z,3
2022-11-19T00:33:54.325Z,3
2022-11-19T00:34:57.199Z,3
2022-11-19T00:35:59.818Z,2
2022-11-19T00:37:02.444Z,3
2022-11-19T00:38:05.322Z,3
2022-11-19T00:39:07.943Z,3
2022-11-19T00:40:10.574Z,3
2022-11-19T00:41:13.206Z,3
2022-11-19T00:42:15.834Z,3
2022-11-19T00:43:18.500Z,2
2022-11-19T00:44:21.158Z,2
2022-11-19T00:45:23.841Z,3
2022-11-19T00:46:26.784Z,4
2022-11-19T00:47:29.441Z,3
2022-11-19T00:48:32.112Z,3
2022-11-19T00:49:34.741Z,3
2022-11-19T00:50:37.374Z,2
2022-11-19T00:51:40.040Z,3
2022-11-19T00:52:44.174Z,3
2022-11-19T00:53:46.725Z,3
2022-11-19T00:54:49.392Z,3
2022-11-19T00:55:52.020Z,3
2022-11-19T00:56:54.648Z,3
2022-11-19T00:57:57.313Z,3
2022-11-19T00:59:00.587Z,2
2022-11-19T01:00:03.237Z,3
2022-11-19T01:01:06.103Z,3
2022-11-19T01:02:09.160Z,1
2022-11-19T01:03:11.751Z,3
2022-11-19T01:04:14.383Z,3
2022-11-19T01:05:17.059Z,3
2022-11-19T01:06:19.913Z,3
2022-11-19T01:07:22.593Z,3
2022-11-19T01:08:25.387Z,2
2022-11-19T01:09:28.064Z,2
2022-11-19T01:10:30.713Z,3
2022-11-19T01:11:33.358Z,1
2022-11-19T01:12:35.991Z,1
2022-11-19T01:13:38.648Z,1
2022-11-19T01:14:41.535Z,1
2022-11-19T01:15:44.232Z,3
2022-11-19T01:16:47.006Z,2
2022-11-19T01:17:49.687Z,2
2022-11-19T01:18:52.331Z,2
2022-11-19T01:19:54.968Z,3
2022-11-19T01:20:57.648Z,2
2022-11-19T01:22:00.308Z,2
2022-11-19T01:23:02.973Z,1
2022-11-19T01:24:05.611Z,2
2022-11-19T01:25:08.290Z,1
2022-11-19T01:26:10.920Z,3
2022-11-19T01:27:13.566Z,3
2022-11-19T01:28:16.269Z,2
2022-11-19T01:29:19.615Z,2
2022-11-19T01:30:23.034Z,2
2022-11-19T01:31:25.705Z,2
2022-11-19T01:32:28.411Z,3
2022-11-19T01:33:31.080Z,2
2022-11-19T01:34:33.734Z,1
2022-11-19T01:35:36.347Z,1
2022-11-19T01:36:39.055Z,3
2022-11-19T01:37:41.710Z,3
2022-11-19T01:38:44.398Z,3
2022-11-19T01:39:47.065Z,2
2022-11-19T01:40:49.723Z,1
2022-11-19T01:41:52.341Z,1
2022-11-19T01:42:54.992Z,1
2022-11-19T01:43:58.216Z,1
2022-11-19T01:45:00.827Z,1
2022-11-19T01:46:03.449Z,1
2022-11-19T01:47:06.141Z,1
2022-11-19T01:48:08.860Z,1
2022-11-19T01:49:11.458Z,2
2022-11-19T01:50:14.112Z,2
2022-11-19T01:51:16.828Z,2
2022-11-19T01:52:19.467Z,2
2022-11-19T01:53:22.087Z,3
2022-11-19T01:54:24.740Z,2
2022-11-19T01:55:27.411Z,2
2022-11-19T01:56:30.082Z,1
2022-11-19T01:57:32.753Z,1
2022-11-19T01:58:35.379Z,3
2022-11-19T01:59:38.009Z,3
2022-11-19T02:00:40.807Z,3
2022-11-19T02:01:43.529Z,2
2022-11-19T02:02:46.374Z,3
2022-11-19T02:03:49.042Z,3
2022-11-19T02:04:51.665Z,3
2022-11-19T02:05:54.337Z,3
2022-11-19T02:06:57.088Z,2
2022-11-19T02:07:59.861Z,2
2022-11-19T02:09:02.478Z,3
2022-11-19T02:10:05.101Z,2
2022-11-19T02:11:07.775Z,2
2022-11-19T02:12:10.401Z,3
2022-11-19T02:13:13.148Z,3
2022-11-19T02:14:15.792Z,3
2022-11-19T02:15:18.441Z,3
2022-11-19T02:16:21.046Z,3
2022-11-19T02:17:23.688Z,2
2022-11-19T02:18:29.857Z,3
2022-11-19T02:19:32.525Z,3
2022-11-19T02:20:35.180Z,3
2022-11-19T02:21:37.763Z,2
2022-11-19T02:22:40.408Z,3
2022-11-19T02:23:46.717Z,2
2022-11-19T02:24:49.370Z,3
2022-11-19T02:25:52.002Z,3
2022-11-19T02:26:54.645Z,3
2022-11-19T02:27:57.292Z,3
2022-11-19T02:28:59.927Z,3
2022-11-19T02:30:02.620Z,3
2022-11-19T02:31:05.273Z,3
2022-11-19T02:32:07.932Z,3
2022-11-19T02:33:10.580Z,3
2022-11-19T02:34:13.273Z,2
2022-11-19T02:35:15.992Z,2
2022-11-19T02:36:18.856Z,3
2022-11-19T02:37:21.524Z,3
2022-11-19T02:38:24.153Z,4
2022-11-19T02:39:26.806Z,3
2022-11-19T02:40:29.434Z,3
2022-11-19T02:41:32.126Z,3
2022-11-19T02:42:34.749Z,3
2022-11-19T02:43:37.361Z,2
2022-11-19T02:44:40.006Z,3
2022-11-19T02:45:42.730Z,3
2022-11-19T02:46:45.376Z,3
2022-11-19T02:47:48.011Z,3
2022-11-19T02:48:50.620Z,2
2022-11-19T02:49:53.304Z,3
2022-11-19T02:50:56.068Z,3
2022-11-19T02:51:58.713Z,3
2022-11-19T02:53:01.349Z,4
2022-11-19T02:54:03.949Z,2
2022-11-19T02:55:06.637Z,3
2022-11-19T02:56:09.304Z,3
2022-11-19T02:57:11.953Z,3
2022-11-19T02:58:14.581Z,3
2022-11-19T02:59:17.905Z,3
2022-11-19T03:00:21.531Z,5
2022-11-19T03:01:24.227Z,3
2022-11-19T03:02:27.036Z,3
2022-11-19T03:03:30.292Z,2
2022-11-19T03:04:33.089Z,3
2022-11-19T03:05:35.723Z,3
2022-11-19T03:06:38.437Z,3
2022-11-19T03:07:41.175Z,3
2022-11-19T03:08:43.942Z,3
2022-11-19T03:09:47.135Z,3
2022-11-19T03:10:50.343Z,3
2022-11-19T03:11:52.927Z,2
2022-11-19T03:12:55.597Z,3
2022-11-19T03:13:58.282Z,3
2022-11-19T03:15:00.900Z,3
2022-11-19T03:16:03.502Z,3
2022-11-19T03:17:06.154Z,3
2022-11-19T03:18:08.805Z,3
2022-11-19T03:19:11.703Z,3
2022-11-19T03:20:14.352Z,3
2022-11-19T03:21:17.043Z,3
2022-11-19T03:22:19.778Z,3
2022-11-19T03:23:22.441Z,2
2022-11-19T03:24:25.078Z,3
2022-11-19T03:25:28.824Z,3
2022-11-19T03:26:32.007Z,2
2022-11-19T03:27:34.610Z,3
2022-11-19T03:28:37.241Z,3
2022-11-19T03:29:39.927Z,3
2022-11-19T03:30:42.608Z,2
2022-11-19T03:31:45.261Z,3
2022-11-19T03:32:48.028Z,3
2022-11-19T03:33:50.702Z,2
2022-11-19T03:34:53.347Z,2
2022-11-19T03:35:55.963Z,3
2022-11-19T03:36:59.216Z,3
2022-11-19T03:38:01.877Z,2
2022-11-19T03:39:04.530Z,3
2022-11-19T03:40:07.164Z,3
2022-11-19T03:41:09.794Z,2
2022-11-19T03:42:12.444Z,3
2022-11-19T03:43:15.081Z,3
2022-11-19T03:44:17.838Z,2
2022-11-19T03:45:20.460Z,3
2022-11-19T03:46:23.706Z,3
2022-11-19T03:47:26.354Z,3
2022-11-19T03:48:28.960Z,3
2022-11-19T03:49:31.657Z,2
2022-11-19T03:50:34.377Z,4
2022-11-19T03:51:37.028Z,2
2022-11-19T03:52:39.725Z,3
2022-11-19T03:53:42.442Z,3
2022-11-19T03:54:45.066Z,3
2022-11-19T03:55:47.716Z,3
2022-11-19T03:56:50.349Z,2
2022-11-19T03:57:53.026Z,3
2022-11-19T03:58:55.652Z,3
2022-11-19T03:59:58.296Z,2
2022-11-19T04:01:01.117Z,3
2022-11-19T04:02:03.929Z,3
2022-11-19T04:03:06.747Z,3
2022-11-19T04:04:09.401Z,3
2022-11-19T04:05:12.005Z,3
2022-11-19T04:06:14.856Z,2
2022-11-19T04:07:17.612Z,3
2022-11-19T04:08:20.455Z,2
2022-11-19T04:09:23.211Z,2
2022-11-19T04:10:25.850Z,2
2022-11-19T04:11:28.539Z,3
2022-11-19T04:12:31.207Z,3
2022-11-19T04:13:33.836Z,4
2022-11-19T04:14:36.496Z,2
2022-11-19T04:15:39.166Z,2
2022-11-19T04:16:41.869Z,2
2022-11-19T04:17:44.534Z,2
2022-11-19T04:18:47.164Z,2
2022-11-19T04:19:49.806Z,3
2022-11-19T04:20:52.487Z,3
2022-11-19T04:21:55.169Z,3
2022-11-19T04:22:57.780Z,3
2022-11-19T04:24:00.466Z,2
2022-11-19T04:25:03.193Z,3
2022-11-19T04:26:05.863Z,1
2022-11-19T04:27:08.489Z,2
2022-11-19T04:28:11.138Z,3
2022-11-19T04:29:13.750Z,4
2022-11-19T04:30:16.430Z,3
2022-11-19T04:31:19.072Z,3
2022-11-19T04:32:21.736Z,3
2022-11-19T04:33:24.414Z,3
2022-11-19T04:34:27.106Z,3
2022-11-19T04:35:29.950Z,3
2022-11-19T04:36:32.568Z,4
2022-11-19T04:37:35.272Z,3
2022-11-19T04:38:37.897Z,3
2022-11-19T04:39:40.591Z,3
2022-11-19T04:40:43.369Z,3
2022-11-19T04:41:45.990Z,3
2022-11-19T04:42:48.646Z,3
2022-11-19T04:43:51.294Z,3
2022-11-19T04:44:53.967Z,3
2022-11-19T04:45:56.617Z,3
2022-11-19T04:46:59.234Z,3
2022-11-19T04:48:01.901Z,3
2022-11-19T04:49:04.538Z,4
2022-11-19T04:50:07.221Z,4
2022-11-19T04:51:09.912Z,3
2022-11-19T04:52:12.505Z,4
2022-11-19T04:53:15.166Z,3
2022-11-19T04:54:17.854Z,4
2022-11-19T04:55:30.494Z,4
2022-11-19T04:56:32.775Z,4
2022-11-19T04:57:35.398Z,4
2022-11-19T04:58:38.018Z,4
2022-11-19T04:59:40.659Z,4
2022-11-19T05:00:43.334Z,4
2022-11-19T05:01:46.060Z,4
2022-11-19T05:02:48.844Z,4
2022-11-19T05:03:51.548Z,4
2022-11-19T05:04:54.201Z,4
2022-11-19T05:05:56.825Z,4
2022-11-19T05:06:59.535Z,4
2022-11-19T05:08:02.330Z,4
2022-11-19T05:09:04.997Z,3
2022-11-19T05:10:07.630Z,4
2022-11-19T05:11:10.269Z,3
2022-11-19T05:12:12.981Z,3
2022-11-19T05:13:15.657Z,4
2022-11-19T05:14:18.294Z,4
2022-11-19T05:15:20.919Z,3
2022-11-19T05:16:23.578Z,3
2022-11-19T05:17:26.213Z,3
2022-11-19T05:18:28.868Z,3
2022-11-19T05:19:32.577Z,3
2022-11-19T05:20:35.223Z,3
2022-11-19T05:21:37.827Z,3
2022-11-19T05:22:40.518Z,3
2022-11-19T05:23:43.171Z,3
2022-11-19T05:24:45.782Z,3
2022-11-19T05:25:48.431Z,3
2022-11-19T05:26:51.093Z,3
2022-11-19T05:27:54.401Z,3
2022-11-19T05:28:57.026Z,3
2022-11-19T05:29:59.667Z,3
2022-11-19T05:31:02.297Z,4
2022-11-19T05:32:04.933Z,5
2022-11-19T05:33:07.580Z,6
2022-11-19T05:34:10.206Z,4
2022-11-19T05:35:12.879Z,4
2022-11-19T05:36:15.527Z,4
2022-11-19T05:37:18.160Z,3
2022-11-19T05:38:24.316Z,4
2022-11-19T05:39:27.505Z,3
2022-11-19T05:40:31.123Z,4
2022-11-19T05:41:35.315Z,3
2022-11-19T05:42:37.767Z,3
2022-11-19T05:43:40.474Z,3
2022-11-19T05:44:43.123Z,4
2022-11-19T05:45:45.771Z,3
2022-11-19T05:46:48.421Z,3
2022-11-19T05:47:51.068Z,3
2022-11-19T05:48:53.693Z,3
2022-11-19T05:49:56.351Z,3
2022-11-19T05:50:59.013Z,3
2022-11-19T05:52:01.671Z,3
2022-11-19T05:53:04.324Z,3
2022-11-19T05:54:07.351Z,3
2022-11-19T05:55:10.238Z,3
2022-11-19T05:56:12.920Z,4
2022-11-19T05:57:27.068Z,3
2022-11-19T05:58:29.377Z,3
2022-11-19T05:59:33.061Z,3
2022-11-19T06:00:35.643Z,3
2022-11-19T06:01:39.262Z,3
2022-11-19T06:02:42.035Z,2
2022-11-19T06:03:44.835Z,3
2022-11-19T06:04:47.456Z,3
2022-11-19T06:05:50.102Z,3
2022-11-19T06:06:52.715Z,3
2022-11-19T06:07:55.558Z,3
2022-11-19T06:08:58.202Z,4
2022-11-19T06:10:00.857Z,3
2022-11-19T06:11:03.441Z,3
2022-11-19T06:12:06.105Z,3
2022-11-19T06:13:08.985Z,4
2022-11-19T06:14:11.603Z,3
2022-11-19T06:15:14.264Z,4
2022-11-19T06:16:16.938Z,4
2022-11-19T06:17:19.580Z,5
2022-11-19T06:18:22.249Z,7
2022-11-19T06:19:24.924Z,7
2022-11-19T06:20:27.672Z,7
2022-11-19T06:21:30.416Z,7
2022-11-19T06:22:33.091Z,7
2022-11-19T06:23:35.768Z,11
2022-11-19T06:24:38.453Z,15
2022-11-19T06:25:41.084Z,17
2022-11-19T06:26:43.714Z,17
2022-11-19T06:27:46.371Z,16
2022-11-19T06:28:49.024Z,14
2022-11-19T06:29:56.513Z,14
2022-11-19T06:30:59.006Z,16
2022-11-19T06:32:01.664Z,17
2022-11-19T06:33:04.292Z,17
2022-11-19T06:34:06.925Z,16
2022-11-19T06:35:10.139Z,14
2022-11-19T06:36:12.773Z,13
2022-11-19T06:37:15.473Z,11
2022-11-19T06:38:18.724Z,10
2022-11-19T06:39:22.080Z,7
2022-11-19T06:40:25.446Z,7
2022-11-19T06:41:28.111Z,7
2022-11-19T06:42:30.757Z,7
2022-11-19T06:43:33.421Z,6
2022-11-19T06:44:36.044Z,7
2022-11-19T06:45:38.714Z,6
2022-11-19T06:46:41.421Z,6
2022-11-19T06:47:44.099Z,7
2022-11-19T06:48:47.740Z,5
2022-11-19T06:49:50.389Z,6
2022-11-19T06:50:53.013Z,6
2022-11-19T06:51:55.663Z,7
2022-11-19T06:52:58.317Z,5
2022-11-19T06:54:00.958Z,6
2022-11-19T06:55:03.567Z,6
2022-11-19T06:56:06.219Z,5
2022-11-19T06:57:08.895Z,6
2022-11-19T06:58:15.041Z,6
2022-11-19T06:59:18.275Z,6
2022-11-19T07:00:21.697Z,6
2022-11-19T07:01:24.511Z,6
2022-11-19T07:02:27.356Z,8
2022-11-19T07:03:30.023Z,7
2022-11-19T07:04:32.655Z,7
2022-11-19T07:05:35.312Z,6
2022-11-19T07:06:37.989Z,7
2022-11-19T07:07:40.631Z,7
2022-11-19T07:08:43.500Z,7
2022-11-19T07:09:46.139Z,7
2022-11-19T07:10:48.755Z,7
2022-11-19T07:11:51.374Z,8
2022-11-19T07:12:54.057Z,8
2022-11-19T07:13:56.704Z,8
2022-11-19T07:15:04.910Z,8
2022-11-19T07:16:07.245Z,7
2022-11-19T07:17:09.879Z,7
2022-11-19T07:18:12.554Z,7
2022-11-19T07:19:15.202Z,8
2022-11-19T07:20:17.856Z,7
2022-11-19T07:21:20.469Z,7
2022-11-19T07:22:23.119Z,7
2022-11-19T07:23:25.774Z,6
2022-11-19T07:24:28.439Z,6
2022-11-19T07:25:31.114Z,6
2022-11-19T07:26:33.744Z,7
2022-11-19T07:27:36.406Z,7
2022-11-19T07:28:40.585Z,8
2022-11-19T07:29:43.151Z,7
2022-11-19T07:30:45.815Z,7
2022-11-19T07:31:48.464Z,7
2022-11-19T07:32:51.116Z,8
2022-11-19T07:33:53.804Z,10
2022-11-19T07:34:56.418Z,10
2022-11-19T07:35:59.074Z,10
2022-11-19T07:37:01.768Z,10
2022-11-19T07:38:04.449Z,11
2022-11-19T07:39:07.069Z,13
2022-11-19T07:40:09.738Z,11
2022-11-19T07:41:12.377Z,10
2022-11-19T07:42:15.041Z,10
2022-11-19T07:43:17.654Z,8
2022-11-19T07:44:20.320Z,9
2022-11-19T07:45:22.962Z,10
2022-11-19T07:46:25.619Z,10
2022-11-19T07:47:28.290Z,8
2022-11-19T07:48:31.006Z,8
2022-11-19T07:49:33.741Z,8
2022-11-19T07:50:36.396Z,8
2022-11-19T07:51:39.024Z,9
2022-11-19T07:52:41.704Z,10
2022-11-19T07:53:44.322Z,7
2022-11-19T07:54:47.001Z,8
2022-11-19T07:55:49.594Z,8
2022-11-19T07:56:52.248Z,8
2022-11-19T07:57:54.883Z,8
2022-11-19T07:58:58.061Z,8
2022-11-19T08:00:00.720Z,10
2022-11-19T08:01:03.371Z,10
2022-11-19T08:02:06.078Z,10
2022-11-19T08:03:08.806Z,11
2022-11-19T08:04:11.520Z,10
2022-11-19T08:05:14.346Z,11
2022-11-19T08:06:17.030Z,10
2022-11-19T08:07:19.779Z,8
2022-11-19T08:08:22.521Z,9
2022-11-19T08:09:25.231Z,8
2022-11-19T08:10:32.099Z,8
2022-11-19T08:11:34.496Z,8
2022-11-19T08:12:37.134Z,8
2022-11-19T08:13:39.801Z,8
2022-11-19T08:14:42.493Z,7
2022-11-19T08:15:45.250Z,8
2022-11-19T08:16:47.891Z,7
2022-11-19T08:17:50.572Z,7
2022-11-19T08:18:53.231Z,8
2022-11-19T08:19:55.919Z,8
2022-11-19T08:20:58.642Z,7
2022-11-19T08:22:01.307Z,7
2022-11-19T08:23:03.996Z,7
2022-11-19T08:24:06.867Z,7
2022-11-19T08:25:09.530Z,7
2022-11-19T08:26:12.184Z,7
2022-11-19T08:27:14.854Z,7
2022-11-19T08:28:17.727Z,7
2022-11-19T08:29:20.353Z,7
2022-11-19T08:30:22.979Z,7
2022-11-19T08:31:25.663Z,8
2022-11-19T08:32:28.352Z,8
2022-11-19T08:33:31.011Z,7
2022-11-19T08:34:33.680Z,8
2022-11-19T08:35:36.359Z,7
2022-11-19T08:36:39.086Z,8
2022-11-19T08:37:41.791Z,8
2022-11-19T08:38:44.462Z,8
2022-11-19T08:39:47.147Z,7
2022-11-19T08:40:50.366Z,8
2022-11-19T08:41:53.007Z,8
2022-11-19T08:42:55.931Z,7
2022-11-19T08:43:58.567Z,8
2022-11-19T08:45:01.207Z,8
2022-11-19T08:46:03.845Z,10
2022-11-19T08:47:06.535Z,10
2022-11-19T08:48:09.277Z,9
2022-11-19T08:49:12.231Z,8
2022-11-19T08:50:14.857Z,8
2022-11-19T08:51:17.757Z,7
2022-11-19T08:52:20.793Z,10
2022-11-19T08:53:23.375Z,7
2022-11-19T08:54:26.066Z,6
2022-11-19T08:55:28.735Z,7
2022-11-19T08:56:31.363Z,6
2022-11-19T08:57:34.089Z,6
2022-11-19T08:58:36.709Z,7
2022-11-19T08:59:39.462Z,7
2022-11-19T09:00:42.167Z,7
2022-11-19T09:01:45.192Z,7
2022-11-19T09:02:47.876Z,6
2022-11-19T09:03:50.517Z,7
2022-11-19T09:04:53.189Z,7
2022-11-19T09:05:55.860Z,6
2022-11-19T09:06:59.241Z,7
2022-11-19T09:08:02.064Z,7
2022-11-19T09:09:04.685Z,7
2022-11-19T09:10:07.307Z,8
2022-11-19T09:11:09.986Z,8
2022-11-19T09:12:12.672Z,9
2022-11-19T09:13:15.340Z,8
2022-11-19T09:14:18.772Z,8
2022-11-19T09:15:22.852Z,11
2022-11-19T09:16:25.519Z,11
2022-11-19T09:17:28.775Z,10
2022-11-19T09:18:34.936Z,10
2022-11-19T09:19:37.390Z,7
2022-11-19T09:20:40.020Z,7
2022-11-19T09:21:42.687Z,7
2022-11-19T09:22:45.394Z,7
2022-11-19T09:23:48.386Z,7
2022-11-19T09:24:51.027Z,6
2022-11-19T09:25:53.910Z,7
2022-11-19T09:27:02.484Z,6
2022-11-19T09:28:04.998Z,6
2022-11-19T09:29:07.638Z,7
2022-11-19T09:30:10.808Z,7
2022-11-19T09:31:13.439Z,7
2022-11-19T09:32:25.133Z,7
2022-11-19T09:33:27.948Z,7
2022-11-19T09:34:30.588Z,6
2022-11-19T09:35:33.260Z,5
2022-11-19T09:36:36.488Z,6
2022-11-19T09:37:39.391Z,6
2022-11-19T09:38:42.096Z,6
2022-11-19T09:39:44.841Z,6
2022-11-19T09:40:47.507Z,6
2022-11-19T09:41:51.124Z,6
2022-11-19T09:42:53.991Z,6
2022-11-19T09:44:06.641Z,5
2022-11-19T09:45:08.997Z,6
2022-11-19T09:46:11.865Z,5
2022-11-19T09:47:14.545Z,5
2022-11-19T09:48:17.136Z,5
2022-11-19T09:49:19.763Z,7
2022-11-19T09:50:22.425Z,6
2022-11-19T09:51:25.043Z,7
2022-11-19T09:52:27.666Z,5
2022-11-19T09:53:30.331Z,6
2022-11-19T09:54:32.998Z,6
2022-11-19T09:55:35.771Z,6
2022-11-19T09:56:38.438Z,5
2022-11-19T09:57:41.209Z,5
2022-11-19T09:58:45.310Z,8
2022-11-19T09:59:47.885Z,9
2022-11-19T10:00:50.753Z,9
2022-11-19T10:01:53.382Z,10
2022-11-19T10:02:56.167Z,11
2022-11-19T10:03:58.934Z,11
2022-11-19T10:05:01.597Z,11
2022-11-19T10:06:04.249Z,11
2022-11-19T10:07:07.073Z,10
2022-11-19T10:08:09.926Z,8
2022-11-19T10:09:12.553Z,7
2022-11-19T10:10:15.430Z,7
2022-11-19T10:11:28.369Z,7
2022-11-19T10:12:30.547Z,7
2022-11-19T10:13:33.193Z,8
2022-11-19T10:14:35.809Z,10
2022-11-19T10:15:38.485Z,10
2022-11-19T10:16:41.141Z,9
2022-11-19T10:17:43.749Z,10
2022-11-19T10:18:46.412Z,10
2022-11-19T10:19:49.050Z,9
2022-11-19T10:20:51.726Z,10
2022-11-19T10:21:54.979Z,10
2022-11-19T10:22:58.037Z,11
2022-11-19T10:24:00.856Z,14
2022-11-19T10:25:03.530Z,13
2022-11-19T10:26:06.228Z,13
2022-11-19T10:27:09.077Z,15
2022-11-19T10:28:11.687Z,16
2022-11-19T10:29:14.344Z,11
2022-11-19T10:30:17.011Z,10
2022-11-19T10:31:19.675Z,8
2022-11-19T10:32:22.333Z,7
2022-11-19T10:33:25.004Z,6
2022-11-19T10:34:31.200Z,6
2022-11-19T10:35:37.158Z,6
2022-11-19T10:36:39.543Z,6
2022-11-19T10:37:45.909Z,6
2022-11-19T10:38:51.488Z,7
2022-11-19T10:39:57.392Z,8
2022-11-19T10:40:59.787Z,10
2022-11-19T10:42:02.449Z,11
2022-11-19T10:43:05.316Z,11
2022-11-19T10:44:08.195Z,10
2022-11-19T10:45:10.821Z,11
2022-11-19T10:46:13.454Z,9
2022-11-19T10:47:16.120Z,8
2022-11-19T10:48:18.755Z,11
2022-11-19T10:49:21.985Z,11
2022-11-19T10:50:24.686Z,10
2022-11-19T10:51:27.379Z,10
2022-11-19T10:52:30.054Z,10
2022-11-19T10:53:32.693Z,10
2022-11-19T10:54:35.335Z,10
2022-11-19T10:55:41.485Z,14
2022-11-19T10:56:43.926Z,14
2022-11-19T10:57:46.576Z,11
2022-11-19T10:58:49.520Z,11
2022-11-19T10:59:52.128Z,10
2022-11-19T11:00:54.852Z,8
2022-11-19T11:01:57.638Z,6
2022-11-19T11:03:00.274Z,4
2022-11-19T11:04:02.953Z,5
2022-11-19T11:05:05.588Z,4
2022-11-19T11:06:08.270Z,4
2022-11-19T11:07:11.022Z,5
2022-11-19T11:08:13.887Z,6
2022-11-19T11:09:16.540Z,6
2022-11-19T11:10:19.383Z,7
2022-11-19T11:11:23.107Z,7
2022-11-19T11:12:26.523Z,10
2022-11-19T11:13:29.199Z,11
2022-11-19T11:14:31.962Z,10
2022-11-19T11:15:34.607Z,8
2022-11-19T11:16:38.107Z,7
2022-11-19T11:17:40.917Z,7
2022-11-19T11:18:43.573Z,7
2022-11-19T11:19:46.172Z,7
2022-11-19T11:20:48.821Z,7
2022-11-19T11:21:51.501Z,7
2022-11-19T11:22:54.182Z,7
2022-11-19T11:23:56.854Z,6
2022-11-19T11:25:07.192Z,6
2022-11-19T11:26:09.879Z,5
2022-11-19T11:27:12.489Z,4
2022-11-19T11:28:15.148Z,6
2022-11-19T11:29:18.327Z,5
2022-11-19T11:30:22.567Z,10
2022-11-19T11:31:25.226Z,20
2022-11-19T11:32:27.885Z,23
2022-11-19T11:33:30.527Z,20
2022-11-19T11:34:33.238Z,20
2022-11-19T11:35:36.088Z,16
2022-11-19T11:36:38.771Z,11
2022-11-19T11:37:41.458Z,10
2022-11-19T11:38:44.115Z,8
2022-11-19T11:39:46.779Z,8
2022-11-19T11:40:49.434Z,8
2022-11-19T11:42:06.197Z,8
2022-11-19T11:43:09.511Z,7
2022-11-19T11:44:12.113Z,7
2022-11-19T11:45:14.821Z,7
2022-11-19T11:46:17.546Z,8
2022-11-19T11:47:20.192Z,9
2022-11-19T11:48:22.822Z,10
2022-11-19T11:49:26.071Z,10
2022-11-19T11:50:29.193Z,10
2022-11-19T11:51:31.878Z,13
2022-11-19T11:52:34.502Z,16
2022-11-19T11:53:37.163Z,16
2022-11-19T11:54:40.043Z,14
2022-11-19T11:55:42.708Z,17
2022-11-19T11:56:45.378Z,14
2022-11-19T11:57:48.263Z,15
2022-11-19T11:58:50.903Z,16
2022-11-19T11:59:53.586Z,14
2022-11-19T12:00:56.367Z,14
2022-11-19T12:01:59.168Z,13
2022-11-19T12:03:02.192Z,17
2022-11-19T12:04:04.823Z,19
2022-11-19T12:05:07.496Z,19
2022-11-19T12:06:10.102Z,19
2022-11-19T12:07:12.881Z,19
2022-11-19T12:08:15.758Z,19
2022-11-19T12:09:19.136Z,19
2022-11-19T12:10:22.309Z,16
2022-11-19T12:11:24.965Z,13
2022-11-19T12:12:27.589Z,10
2022-11-19T12:13:30.515Z,10
2022-11-19T12:14:33.374Z,10
2022-11-19T12:15:35.992Z,11
2022-11-19T12:16:38.665Z,10
2022-11-19T12:17:41.617Z,7
2022-11-19T12:18:44.850Z,7
2022-11-19T12:19:47.532Z,5
2022-11-19T12:20:50.163Z,6
2022-11-19T12:21:52.809Z,5
2022-11-19T12:22:55.462Z,5
2022-11-19T12:23:58.118Z,6
2022-11-19T12:25:00.734Z,8
2022-11-19T12:26:03.496Z,13
2022-11-19T12:27:06.133Z,11
2022-11-19T12:28:08.803Z,10
2022-11-19T12:29:11.447Z,10
2022-11-19T12:30:14.113Z,10
2022-11-19T12:31:17.068Z,8
2022-11-19T12:32:19.726Z,7
2022-11-19T12:33:22.481Z,6
2022-11-19T12:34:25.156Z,6
2022-11-19T12:35:27.844Z,5
2022-11-19T12:36:30.486Z,6
2022-11-19T12:37:33.204Z,6
2022-11-19T12:38:35.888Z,6
2022-11-19T12:39:38.537Z,5
2022-11-19T12:40:42.464Z,4
2022-11-19T12:41:45.290Z,5
2022-11-19T12:42:47.876Z,6
2022-11-19T12:43:50.548Z,7
2022-11-19T12:44:53.185Z,8
2022-11-19T12:45:55.902Z,10
2022-11-19T12:46:58.553Z,8
2022-11-19T12:48:01.215Z,9
2022-11-19T12:49:03.892Z,10
2022-11-19T12:50:06.536Z,8
2022-11-19T12:51:12.716Z,8
2022-11-19T12:52:15.174Z,8
2022-11-19T12:53:17.887Z,8
2022-11-19T12:54:33.316Z,8
2022-11-19T12:55:37.810Z,8
2022-11-19T12:56:40.388Z,7
2022-11-19T12:57:43.025Z,7
2022-11-19T12:58:45.652Z,6
2022-11-19T12:59:48.306Z,6
2022-11-19T13:00:51.846Z,6
2022-11-19T13:01:54.841Z,6
2022-11-19T13:02:57.522Z,6
2022-11-19T13:04:00.239Z,6
2022-11-19T13:05:02.996Z,7
2022-11-19T13:06:05.667Z,5
2022-11-19T13:07:08.424Z,4
2022-11-19T13:08:11.173Z,4
2022-11-19T13:09:13.836Z,5
2022-11-19T13:10:16.504Z,5
2022-11-19T13:11:19.183Z,5
2022-11-19T13:12:25.384Z,4
2022-11-19T13:13:28.339Z,6
2022-11-19T13:14:30.958Z,5
2022-11-19T13:15:33.821Z,5
2022-11-19T13:16:36.505Z,7
2022-11-19T13:17:49.196Z,7
2022-11-19T13:18:54.902Z,6
2022-11-19T13:19:57.312Z,5
2022-11-19T13:21:00.248Z,6
2022-11-19T13:22:04.453Z,5
2022-11-19T13:23:07.203Z,7
2022-11-19T13:24:09.839Z,7
2022-11-19T13:25:12.489Z,7
2022-11-19T13:26:15.178Z,8
2022-11-19T13:27:23.532Z,11
2022-11-19T13:28:25.985Z,10
2022-11-19T13:29:28.625Z,8
2022-11-19T13:30:31.274Z,7
2022-11-19T13:31:33.932Z,7
2022-11-19T13:32:36.604Z,7
2022-11-19T13:33:39.850Z,7
2022-11-19T13:34:42.449Z,7
2022-11-19T13:35:45.125Z,7
2022-11-19T13:36:47.853Z,8
2022-11-19T13:37:58.626Z,7
2022-11-19T13:39:01.248Z,7
2022-11-19T13:40:03.855Z,7
2022-11-19T13:41:06.508Z,6
2022-11-19T13:42:09.185Z,7
2022-11-19T13:43:31.418Z,5
2022-11-19T13:44:33.728Z,5
2022-11-19T13:45:36.298Z,4
2022-11-19T13:46:38.950Z,4
2022-11-19T13:47:41.600Z,4
2022-11-19T13:48:44.296Z,5
2022-11-19T13:49:46.993Z,5
2022-11-19T13:50:49.665Z,6
2022-11-19T13:51:52.364Z,6
2022-11-19T13:52:54.997Z,4
2022-11-19T13:54:03.712Z,4
2022-11-19T13:55:06.250Z,4
2022-11-19T13:56:08.888Z,10
2022-11-19T13:57:11.487Z,11
2022-11-19T13:58:14.187Z,10
2022-11-19T13:59:16.869Z,11
2022-11-19T14:00:19.800Z,13
2022-11-19T14:01:22.533Z,20
2022-11-19T14:02:35.269Z,22
2022-11-19T14:03:37.499Z,24
2022-11-19T14:04:40.140Z,24
2022-11-19T14:05:42.794Z,23
2022-11-19T14:06:45.436Z,26
2022-11-19T14:07:48.215Z,26
2022-11-19T14:08:50.991Z,30
2022-11-19T14:09:53.658Z,33
2022-11-19T14:10:56.326Z,34
2022-11-19T14:11:58.946Z,35
2022-11-19T14:13:01.600Z,31
2022-11-19T14:14:04.253Z,28
2022-11-19T14:15:06.971Z,24
2022-11-19T14:16:09.652Z,19
2022-11-19T14:17:12.307Z,13
2022-11-19T14:18:14.987Z,10
2022-11-19T14:19:17.992Z,8
2022-11-19T14:20:21.508Z,8
2022-11-19T14:21:24.269Z,8
2022-11-19T14:22:26.938Z,10
2022-11-19T14:23:29.629Z,8
2022-11-19T14:24:32.294Z,7
2022-11-19T14:25:34.938Z,7
2022-11-19T14:26:37.599Z,7
2022-11-19T14:27:40.236Z,7
2022-11-19T14:28:42.849Z,9
2022-11-19T14:29:49.036Z,8
2022-11-19T14:30:51.457Z,9
2022-11-19T14:31:54.136Z,9
2022-11-19T14:32:56.818Z,8
2022-11-19T14:34:02.999Z,7
2022-11-19T14:35:05.625Z,7
2022-11-19T14:36:23.278Z,7
2022-11-19T14:37:29.051Z,7
2022-11-19T14:38:33.137Z,8
2022-11-19T14:39:40.207Z,7
2022-11-19T14:40:46.063Z,10
2022-11-19T14:41:48.491Z,10
2022-11-19T14:42:54.627Z,14
2022-11-19T14:43:57.064Z,16
2022-11-19T14:44:59.767Z,14
2022-11-19T14:46:02.355Z,14
2022-11-19T14:47:05.573Z,11
2022-11-19T14:48:10.743Z,10
2022-11-19T14:49:14.050Z,8
2022-11-19T14:50:34.363Z,8
2022-11-19T14:51:35.475Z,7
2022-11-19T14:52:41.014Z,8
2022-11-19T14:53:53.190Z,7
2022-11-19T14:54:58.955Z,7
2022-11-19T14:56:01.312Z,6
2022-11-19T14:57:03.970Z,6
2022-11-19T14:58:09.364Z,6
2022-11-19T14:59:19.354Z,6
2022-11-19T15:00:30.132Z,6
2022-11-19T15:01:35.374Z,5
2022-11-19T15:02:41.237Z,6
2022-11-19T15:03:48.281Z,6
2022-11-19T15:04:57.049Z,6
2022-11-19T15:06:14.909Z,4
2022-11-19T15:07:17.452Z,6
2022-11-19T15:08:20.186Z,6
2022-11-19T15:09:22.924Z,7
2022-11-19T15:10:26.140Z,8
2022-11-19T15:11:28.730Z,9
2022-11-19T15:12:31.383Z,10
2022-11-19T15:13:34.005Z,8
2022-11-19T15:14:39.850Z,7
2022-11-19T15:15:42.285Z,7
2022-11-19T15:16:44.978Z,7
2022-11-19T15:17:47.600Z,7
2022-11-19T15:18:50.228Z,13
2022-11-19T15:19:52.866Z,13
2022-11-19T15:20:55.516Z,13
2022-11-19T15:21:58.194Z,16
2022-11-19T15:23:00.876Z,17
2022-11-19T15:24:03.566Z,19
2022-11-19T15:25:12.480Z,23
2022-11-19T15:26:17.467Z,31
2022-11-19T15:27:20.100Z,43